Time;durP1;ratioP1;P1;durP2;ratioP2;P2;SDS_P1;SDS_P2;PMS_P1;PMS_P2;Temp;Humidity;BMP_temperature;BMP_pressure;BME280_temperature;BME280_humidity;BME280_pressure;Samples;Min_cycle;Max_cycle;Signal;HPM_P1;HPM_P2
2022/08/27 00:02:23;;;;;;;7.97;3.53;;;;;;;-145.18;100.00;46648.69;4993081;28;20030;-72
2022/08/27 00:04:49;;;;;;;8.93;4.00;;;;;;;-145.18;100.00;46652.59;4993249;28;20042;-72
2022/08/27 00:07:15;;;;;;;6.73;3.90;;;;;;;-145.18;100.00;46648.69;4993408;28;20498;-72
2022/08/27 00:09:40;;;;;;;6.90;3.80;;;;;;;-145.18;100.00;46654.53;4993689;28;20030;-72
2022/08/27 00:12:07;;;;;;;10.40;3.77;;;;;;;-145.18;100.00;46646.72;4993390;28;20038;-73
2022/08/27 00:14:36;;;;;;;8.93;3.73;;;;;;;-145.18;100.00;46654.53;4991877;28;20035;-72
2022/08/27 00:17:02;;;;;;;9.97;3.93;;;;;;;-145.18;100.00;46640.88;4992911;28;20044;-72
2022/08/27 00:19:28;;;;;;;7.50;3.10;;;;;;;-145.18;100.00;46652.59;4993212;28;20084;-72
2022/08/27 00:21:54;;;;;;;6.63;3.90;;;;;;;-145.18;100.00;46646.72;4992919;28;20066;-72
2022/08/27 00:24:20;;;;;;;11.70;3.43;;;;;;;-145.18;100.00;46648.69;4993387;28;20030;-72
2022/08/27 00:26:45;;;;;;;8.60;3.43;;;;;;;-145.18;100.00;46650.63;4992382;28;20438;-72
2022/08/27 00:29:11;;;;;;;12.23;3.47;;;;;;;-145.18;100.00;46646.72;4993313;28;20026;-72
2022/08/27 00:31:37;;;;;;;10.87;3.73;;;;;;;-145.18;100.00;46648.69;4992811;28;20027;-72
2022/08/27 00:34:02;;;;;;;7.60;4.10;;;;;;;-145.18;100.00;46648.69;4993141;28;20037;-72
2022/08/27 00:36:28;;;;;;;8.20;3.47;;;;;;;-145.18;100.00;46652.59;4993070;28;20364;-73
2022/08/27 00:38:53;;;;;;;11.67;3.53;;;;;;;-145.18;100.00;46650.63;4992282;28;20043;-72
2022/08/27 00:41:19;;;;;;;10.13;3.57;;;;;;;-145.18;100.00;46650.63;4974705;28;20033;-72
2022/08/27 00:43:53;;;;;;;7.50;3.53;;;;;;;-145.18;100.00;46648.69;4992659;28;20065;-72
2022/08/27 00:46:18;;;;;;;12.03;4.07;;;;;;;-145.18;100.00;46646.72;4992949;28;20093;-72
2022/08/27 00:48:44;;;;;;;11.30;3.10;;;;;;;-145.18;100.00;46646.72;4992975;28;20471;-72
2022/08/27 00:51:09;;;;;;;6.50;3.13;;;;;;;-145.18;100.00;46652.59;4992598;28;20046;-72
2022/08/27 00:53:35;;;;;;;9.57;3.50;;;;;;;-145.18;100.00;46654.53;4992921;28;20030;-72
2022/08/27 00:56:07;;;;;;;7.20;2.97;;;;;;;-145.18;100.00;46646.72;4992588;28;20061;-72
2022/08/27 00:58:42;;;;;;;8.93;3.37;;;;;;;-145.18;100.00;46648.69;4975407;28;20034;-72
2022/08/27 01:01:12;;;;;;;9.63;3.47;;;;;;;-145.18;100.00;46642.81;4991937;28;20030;-72
2022/08/27 01:03:38;;;;;;;11.47;3.07;;;;;;;-145.18;100.00;46650.63;4992278;28;20038;-72
2022/08/27 01:06:09;;;;;;;5.97;3.10;;;;;;;-145.18;100.00;46650.63;4992252;28;20513;-72
2022/08/27 01:08:37;;;;;;;6.90;2.80;;;;;;;-145.18;100.00;46650.63;4992554;28;20114;-72
2022/08/27 01:11:03;;;;;;;13.40;3.17;;;;;;;-145.18;100.00;46644.78;4991678;28;20113;-72
2022/08/27 01:13:31;;;;;;;8.27;3.30;;;;;;;-145.18;100.00;46646.72;4992082;28;20041;-72
2022/08/27 01:15:58;;;;;;;9.10;3.57;;;;;;;-145.18;100.00;46650.63;4991861;28;20026;-72
2022/08/27 01:18:29;;;;;;;8.17;3.93;;;;;;;-145.18;100.00;46648.69;4991677;28;20034;-72
2022/08/27 01:20:58;;;;;;;9.40;3.20;;;;;;;-145.18;100.00;46646.72;4992023;28;20081;-72
2022/08/27 01:23:27;;;;;;;10.90;4.57;;;;;;;-145.18;100.00;46640.88;4991736;28;20495;-72
2022/08/27 01:25:53;;;;;;;8.17;3.70;;;;;;;-145.18;100.00;46648.69;4991860;28;20031;-72
2022/08/27 01:28:20;;;;;;;7.57;3.93;;;;;;;-145.18;100.00;46644.78;4991456;28;20053;-73
2022/08/27 01:30:46;;;;;;;8.20;3.80;;;;;;;-145.18;100.00;46644.78;4991665;28;20034;-72
2022/08/27 01:33:15;;;;;;;18.43;4.87;;;;;;;-145.18;100.00;46646.72;4991519;28;20408;-72
2022/08/27 01:35:42;;;;;;;12.17;4.40;;;;;;;-145.18;100.00;46677.97;4991174;28;20057;-72
2022/08/27 01:38:09;;;;;;;9.27;4.27;;;;;;;-145.18;100.00;46644.78;4991654;28;20096;-72
2022/08/27 01:40:35;;;;;;;10.60;4.47;;;;;;;-145.18;100.00;46640.88;4991902;28;20038;-72
2022/08/27 01:43:01;;;;;;;9.17;4.03;;;;;;;-145.18;100.00;46646.72;4991122;28;20058;-72
2022/08/27 01:45:30;;;;;;;10.47;4.10;;;;;;;-145.18;100.00;46640.88;4991802;28;20034;-72
2022/08/27 01:47:57;;;;;;;7.23;4.10;;;;;;;-145.18;100.00;46640.88;4991126;28;20077;-72
2022/08/27 01:50:27;;;;;;;13.17;4.20;;;;;;;-145.18;100.00;46640.88;4991453;28;20058;-72
2022/08/27 01:52:54;;;;;;;13.43;4.50;;;;;;;-145.18;100.00;46644.78;4991279;28;20445;-72
2022/08/27 01:55:23;;;;;;;9.83;4.73;;;;;;;-145.18;100.00;46644.78;4991692;28;20038;-72
2022/08/27 01:57:49;;;;;;;9.47;4.20;;;;;;;-145.18;100.00;46679.94;4990810;28;20064;-72
2022/08/27 02:02:55;;;;;;;15.40;5.10;;;;;;;-145.18;100.00;46640.88;5290458;22;20046;-74
2022/08/27 02:05:22;;;;;;;12.10;3.90;;;;;;;-145.18;100.00;46644.78;5006153;28;20030;-73
2022/08/27 02:07:48;;;;;;;8.40;4.37;;;;;;;-145.18;100.00;46677.97;5009426;28;20030;-74
2022/08/27 02:10:20;;;;;;;13.00;5.17;;;;;;;-145.18;100.00;46640.88;5009842;28;20477;-74
2022/08/27 02:12:46;;;;;;;10.17;4.70;;;;;;;-145.18;100.00;46642.81;5010099;28;20445;-74
2022/08/27 02:15:12;;;;;;;12.83;4.90;;;;;;;-145.18;100.00;46679.94;5010316;28;20022;-74
2022/08/27 02:17:38;;;;;;;10.77;4.80;;;;;;;-145.18;100.00;46640.88;5010365;28;20482;-74
2022/08/27 02:20:05;;;;;;;15.20;4.90;;;;;;;-145.18;100.00;46642.81;5010557;28;20030;-74
2022/08/27 02:22:31;;;;;;;12.70;5.10;;;;;;;-145.18;100.00;46660.41;5009838;28;20044;-73
2022/08/27 02:24:56;;;;;;;11.77;4.87;;;;;;;-145.18;100.00;46677.97;5010243;28;20038;-74
2022/08/27 02:27:22;;;;;;;11.57;5.30;;;;;;;-145.18;100.00;46642.81;5010196;28;20454;-73
2022/08/27 02:29:50;;;;;;;10.37;4.53;;;;;;;-145.18;100.00;46644.78;5010626;28;20038;-73
2022/08/27 02:32:16;;;;;;;11.43;5.17;;;;;;;-145.18;100.00;46640.88;5010184;28;20025;-73
2022/08/27 02:34:41;;;;;;;9.53;4.80;;;;;;;-145.18;100.00;46642.81;5009954;28;20593;-74
2022/08/27 02:37:06;;;;;;;11.67;4.67;;;;;;;-145.18;100.00;46679.94;5010191;28;20044;-74
2022/08/27 02:39:33;;;;;;;10.07;4.50;;;;;;;-145.18;100.00;46640.88;5010285;28;20105;-73
2022/08/27 02:41:58;;;;;;;8.33;3.97;;;;;;;-145.18;100.00;46640.88;5008408;28;20029;-74
2022/08/27 02:44:24;;;;;;;9.27;3.80;;;;;;;-145.18;100.00;46642.81;5010102;28;20041;-73
2022/08/27 02:46:49;;;;;;;10.90;3.93;;;;;;;-145.18;100.00;46640.88;5009984;28;20440;-74
2022/08/27 02:49:14;;;;;;;9.57;4.23;;;;;;;-145.18;100.00;46644.78;5009638;28;20034;-74
2022/08/27 02:51:40;;;;;;;10.47;3.83;;;;;;;-145.18;100.00;46644.78;5010383;28;20040;-74
2022/08/27 02:54:06;;;;;;;8.77;3.77;;;;;;;-145.18;100.00;46644.78;5009680;28;20443;-74
2022/08/27 02:56:31;;;;;;;14.00;3.90;;;;;;;-145.18;100.00;46648.69;5010022;28;20034;-74
2022/08/27 02:58:58;;;;;;;14.57;3.53;;;;;;;-145.18;100.00;46644.78;5009328;28;20030;-74
2022/08/27 03:01:24;;;;;;;11.57;3.90;;;;;;;-145.18;100.00;46642.81;5009221;28;20117;-74
2022/08/27 03:03:50;;;;;;;8.00;3.30;;;;;;;-145.18;100.00;46642.81;5011999;28;20046;-74
2022/08/27 03:06:15;;;;;;;10.53;3.53;;;;;;;-145.18;100.00;46644.78;5013506;28;20056;-74
2022/08/27 03:08:40;;;;;;;10.50;3.80;;;;;;;-145.18;100.00;46646.72;5013425;28;20109;-74
2022/08/27 03:11:07;;;;;;;7.17;3.63;;;;;;;-145.18;100.00;46646.72;5013941;28;20518;-74
2022/08/27 03:13:36;;;;;;;8.37;3.90;;;;;;;-145.18;100.00;46648.69;5013579;28;20022;-74
2022/08/27 03:16:03;;;;;;;7.90;3.40;;;;;;;-145.18;100.00;46642.81;5014128;28;20118;-74
2022/08/27 03:18:28;;;;;;;13.83;4.30;;;;;;;-145.18;100.00;46648.69;5013642;28;20026;-74
2022/08/27 03:20:55;;;;;;;7.80;3.73;;;;;;;-145.18;100.00;46644.78;5013921;28;20026;-73
2022/08/27 03:23:23;;;;;;;11.10;3.73;;;;;;;-145.18;100.00;46650.63;5013310;28;20101;-73
2022/08/27 03:25:52;;;;;;;11.17;4.37;;;;;;;-145.18;100.00;46650.63;5013967;28;20030;-73
2022/08/27 03:28:19;;;;;;;10.53;3.60;;;;;;;-145.18;100.00;46648.69;5012963;28;20032;-73
2022/08/27 03:30:52;;;;;;;9.00;3.43;;;;;;;-145.18;100.00;46648.69;5013614;28;20544;-73
2022/08/27 03:33:19;;;;;;;7.60;3.60;;;;;;;-145.18;100.00;46652.59;5013323;28;20026;-74
2022/08/27 03:35:47;;;;;;;9.00;3.70;;;;;;;-145.18;100.00;46646.72;5013812;28;20034;-74
2022/08/27 03:38:13;;;;;;;10.07;3.83;;;;;;;-145.18;100.00;46646.72;5012794;28;20781;-75
2022/08/27 03:40:39;;;;;;;12.93;4.47;;;;;;;-145.18;100.00;46648.69;5013728;28;20034;-73
2022/08/27 03:43:04;;;;;;;11.70;3.87;;;;;;;-145.18;100.00;46648.69;4995247;28;20030;-74
2022/08/27 03:45:30;;;;;;;7.73;3.37;;;;;;;-145.18;100.00;46648.69;5013863;28;20029;-73
2022/08/27 03:47:55;;;;;;;14.13;3.60;;;;;;;-145.18;100.00;46650.63;5013130;28;20041;-74
2022/08/27 03:50:21;;;;;;;8.27;3.97;;;;;;;-145.18;100.00;46646.72;5013469;28;20112;-74
2022/08/27 03:52:47;;;;;;;7.97;3.40;;;;;;;-145.18;100.00;46646.72;5012794;28;20103;-74
2022/08/27 03:55:13;;;;;;;9.17;3.30;;;;;;;-145.18;100.00;46646.72;5013253;28;20033;-74
2022/08/27 03:57:39;;;;;;;9.73;3.63;;;;;;;-145.18;100.00;46646.72;5013115;28;20041;-74
2022/08/27 04:00:09;;;;;;;10.67;3.87;;;;;;;-145.18;100.00;46646.72;5008888;28;20038;-74
2022/08/27 04:02:35;;;;;;;9.63;3.67;;;;;;;-145.18;100.00;46646.72;5011911;28;20064;-74
2022/08/27 04:05:00;;;;;;;8.57;3.60;;;;;;;-145.18;100.00;46652.59;5012578;28;20103;-73
2022/08/27 04:07:25;;;;;;;9.93;4.07;;;;;;;-145.18;100.00;46646.72;5012775;28;20353;-73
2022/08/27 04:09:51;;;;;;;12.67;3.90;;;;;;;-145.18;100.00;46650.63;5013006;28;20042;-73
2022/08/27 04:12:16;;;;;;;10.23;3.57;;;;;;;-145.18;100.00;46646.72;5012327;28;20037;-74
2022/08/27 04:14:42;;;;;;;11.43;4.27;;;;;;;-145.18;100.00;46646.72;5012510;28;20045;-74
2022/08/27 04:17:07;;;;;;;10.77;3.60;;;;;;;-145.18;100.00;46652.59;5012661;28;20041;-73
2022/08/27 04:19:33;;;;;;;9.90;3.87;;;;;;;-145.18;100.00;46644.78;5012352;28;20029;-73
2022/08/27 04:22:05;;;;;;;9.80;3.27;;;;;;;-145.18;100.00;46644.78;5012526;28;20092;-73
2022/08/27 04:24:33;;;;;;;10.60;4.07;;;;;;;-145.18;100.00;46652.59;5012098;28;20593;-73
2022/08/27 04:27:00;;;;;;;10.83;3.93;;;;;;;-145.18;100.00;46644.78;5012644;28;20038;-73
2022/08/27 04:29:26;;;;;;;11.30;4.20;;;;;;;-145.18;100.00;46644.78;5012274;28;20188;-74
2022/08/27 04:31:52;;;;;;;11.77;3.77;;;;;;;-145.18;100.00;46646.72;5012642;28;20109;-74
2022/08/27 04:34:18;;;;;;;9.90;4.03;;;;;;;-145.18;100.00;46646.72;5011915;28;20033;-74
2022/08/27 04:36:44;;;;;;;12.40;4.03;;;;;;;-145.18;100.00;46644.78;5012610;28;20038;-73
2022/08/27 04:39:11;;;;;;;8.70;3.80;;;;;;;-145.18;100.00;46642.81;5012165;28;20042;-73
2022/08/27 04:41:36;;;;;;;8.57;4.30;;;;;;;-145.18;100.00;46644.78;5012093;28;20088;-74
2022/08/27 04:44:05;;;;;;;16.40;4.67;;;;;;;-145.18;100.00;46679.94;5010997;28;20394;-73
2022/08/27 04:46:35;;;;;;;16.07;4.33;;;;;;;-145.18;100.00;46640.88;5011041;28;20116;-73
2022/08/27 04:49:04;;;;;;;10.17;3.67;;;;;;;-145.18;100.00;46642.81;5010891;28;20026;-73
2022/08/27 04:51:30;;;;;;;9.13;3.87;;;;;;;-145.18;100.00;46642.81;5011484;28;20079;-73
2022/08/27 04:53:56;;;;;;;20.70;4.70;;;;;;;-145.18;100.00;46642.81;5010987;28;20455;-73
2022/08/27 04:56:23;;;;;;;10.37;4.07;;;;;;;-145.18;100.00;46642.81;5011317;28;20045;-73
2022/08/27 04:58:50;;;;;;;9.50;4.20;;;;;;;-145.18;100.00;46646.72;5011441;28;20474;-73
2022/08/27 05:01:18;;;;;;;16.63;4.40;;;;;;;-145.18;100.00;46640.88;5011568;28;20034;-74
2022/08/27 05:03:43;;;;;;;12.30;4.97;;;;;;;-145.18;100.00;46644.78;5010721;28;20120;-73
2022/08/27 05:06:09;;;;;;;9.30;5.20;;;;;;;-145.18;100.00;46638.91;5010481;28;20124;-73
2022/08/27 05:08:35;;;;;;;11.80;5.03;;;;;;;-145.18;100.00;46642.81;5009261;28;20018;-73
2022/08/27 05:11:01;;;;;;;18.73;5.40;;;;;;;-145.18;100.00;46638.91;5009855;28;20046;-73
2022/08/27 05:13:27;;;;;;;14.00;5.53;;;;;;;-145.18;100.00;46638.91;5009884;28;20529;-73
2022/08/27 05:16:02;;;;;;;10.23;4.43;;;;;;;-145.18;100.00;46636.94;5010027;28;20038;-74
2022/08/27 05:18:27;;;;;;;10.10;4.90;;;;;;;-145.18;100.00;46642.81;5007288;28;20418;-73
2022/08/27 05:20:53;;;;;;;12.43;4.80;;;;;;;-145.18;100.00;46638.91;5009873;28;20033;-74
2022/08/27 05:23:19;;;;;;;12.00;5.17;;;;;;;-145.18;100.00;46640.88;5008735;28;20131;-74
2022/08/27 05:25:47;;;;;;;14.03;5.10;;;;;;;-145.18;100.00;46635.00;5009443;28;20080;-74
2022/08/27 05:28:14;;;;;;;11.80;4.90;;;;;;;-145.18;100.00;46633.06;5009836;28;20037;-73
2022/08/27 05:30:43;;;;;;;8.30;4.70;;;;;;;-145.18;100.00;46638.91;5010668;28;20034;-74
2022/08/27 05:33:09;;;;;;;16.43;5.37;;;;;;;-145.18;100.00;46636.94;5009797;28;20573;-74
2022/08/27 05:35:45;;;;;;;11.90;4.53;;;;;;;-145.18;100.00;46642.81;5010620;28;20152;-74
2022/08/27 05:38:11;;;;;;;12.33;5.33;;;;;;;-145.18;100.00;46638.91;5009730;28;20033;-73
2022/08/27 05:40:39;;;;;;;11.07;4.80;;;;;;;-145.18;100.00;46640.88;5010502;28;20061;-74
2022/08/27 05:43:05;;;;;;;11.67;5.00;;;;;;;-145.18;100.00;46640.88;5009349;28;20038;-74
2022/08/27 05:45:31;;;;;;;10.37;5.90;;;;;;;-145.18;100.00;46636.94;5010426;28;20036;-74
2022/08/27 05:47:57;;;;;;;10.73;5.43;;;;;;;-145.18;100.00;46635.00;5010049;28;20116;-74
2022/08/27 05:50:24;;;;;;;11.17;5.13;;;;;;;-145.18;100.00;46635.00;5005004;28;20029;-74
2022/08/27 05:52:50;;;;;;;9.30;5.67;;;;;;;-145.18;100.00;46642.81;5009652;28;20637;-74
2022/08/27 05:55:15;;;;;;;13.23;6.10;;;;;;;-145.18;100.00;46640.88;5009763;28;20037;-74
2022/08/27 05:57:41;;;;;;;14.67;5.50;;;;;;;-145.18;100.00;46636.94;5009922;28;20026;-80
2022/08/27 06:02:51;;;;;;;14.40;5.73;;;;;;;-145.18;100.00;46636.94;4953608;28;1133673;-74
2022/08/27 06:05:17;;;;;;;10.77;6.13;;;;;;;-145.18;100.00;46636.94;5010028;28;20034;-73
2022/08/27 06:07:42;;;;;;;13.87;6.90;;;;;;;-145.18;100.00;46636.94;5009749;28;20429;-74
2022/08/27 06:10:08;;;;;;;9.93;5.47;;;;;;;-145.18;100.00;46635.00;5007750;28;20029;-74
2022/08/27 06:12:33;;;;;;;13.63;5.37;;;;;;;-145.18;100.00;46636.94;5009087;28;20079;-73
2022/08/27 06:14:59;;;;;;;16.23;5.60;;;;;;;-145.18;100.00;46633.06;5009739;28;20038;-74
2022/08/27 06:17:25;;;;;;;11.17;4.87;;;;;;;-145.18;100.00;46636.94;5009594;28;20026;-73
2022/08/27 06:19:50;;;;;;;10.50;4.50;;;;;;;-145.18;100.00;46635.00;5009497;28;20022;-74
2022/08/27 06:22:16;;;;;;;8.23;4.00;;;;;;;-145.18;100.00;46636.94;5009180;28;20029;-69
2022/08/27 06:24:42;;;;;;;10.00;3.87;;;;;;;-145.18;100.00;46644.78;5009572;28;20506;-67
2022/08/27 06:27:10;;;;;;;11.00;4.87;;;;;;;-145.18;100.00;46646.72;4992141;28;20026;-69
2022/08/27 06:29:36;;;;;;;9.03;4.80;;;;;;;-145.18;100.00;46646.72;5009658;28;20037;-71
2022/08/27 06:32:02;;;;;;;14.43;5.30;;;;;;;-145.18;100.00;46654.53;5010043;28;20037;-75
2022/08/27 06:34:27;;;;;;;12.53;5.33;;;;;;;-145.18;100.00;46646.72;5009146;28;20367;-74
2022/08/27 06:36:53;;;;;;;11.20;5.47;;;;;;;-145.18;100.00;46648.69;5010289;28;20025;-72
2022/08/27 06:39:18;;;;;;;11.20;4.50;;;;;;;-145.18;100.00;46644.78;5009936;28;20561;-75
2022/08/27 06:41:44;;;;;;;6.53;3.97;;;;;;;-145.18;100.00;46650.63;5010317;28;20696;-75
2022/08/27 06:44:12;;;;;;;11.57;4.47;;;;;;;-145.18;100.00;46650.63;5009628;28;20034;-73
2022/08/27 06:46:37;;;;;;;8.90;4.20;;;;;;;-145.18;100.00;46654.53;5010336;28;20480;-73
2022/08/27 06:49:03;;;;;;;11.93;3.37;;;;;;;-145.18;100.00;46652.59;4991836;28;20046;-74
2022/08/27 06:51:31;;;;;;;9.33;3.47;;;;;;;-145.18;100.00;46656.50;5010153;28;20034;-73
2022/08/27 06:54:00;;;;;;;7.07;4.00;;;;;;;-145.18;100.00;46662.34;5009418;28;20066;-74
2022/08/27 06:56:27;;;;;;;11.50;4.63;;;;;;;-145.18;100.00;46660.41;5010153;28;20022;-75
2022/08/27 06:58:56;;;;;;;9.93;3.57;;;;;;;-145.18;100.00;46658.44;5009244;28;20536;-73
2022/08/27 07:01:44;;;;;;;8.87;2.77;;;;;;;-145.18;100.00;46662.34;5009594;28;20088;-73
2022/08/27 07:04:12;;;;;;;10.90;3.40;;;;;;;-145.18;100.00;46668.22;5009049;28;20057;-72
2022/08/27 07:06:39;;;;;;;9.33;3.67;;;;;;;-145.18;100.00;46670.16;5010130;28;20034;-71
2022/08/27 07:09:05;;;;;;;8.37;3.23;;;;;;;-145.18;100.00;46662.34;5009286;28;20030;-74
2022/08/27 07:11:32;;;;;;;7.77;2.70;;;;;;;-145.18;100.00;46670.16;5009854;28;20026;-72
2022/08/27 07:13:57;;;;;;;9.50;3.00;;;;;;;-145.18;100.00;46670.16;5009477;28;20109;-72
2022/08/27 07:16:26;;;;;;;6.17;3.00;;;;;;;-145.18;100.00;46674.06;5010082;28;20038;-72
2022/08/27 07:18:53;;;;;;;10.03;2.77;;;;;;;-145.18;100.00;46672.13;5009953;28;20030;-70
2022/08/27 07:21:19;;;;;;;8.50;2.93;;;;;;;-145.18;100.00;46670.16;4992421;28;20390;-72
2022/08/27 07:23:45;;;;;;;10.20;3.70;;;;;;;-145.18;100.00;46672.13;5009702;28;20044;-71
2022/08/27 07:26:12;;;;;;;11.33;3.40;;;;;;;-145.18;100.00;46668.22;5009506;28;20045;-71
2022/08/27 07:28:39;;;;;;;8.83;3.37;;;;;;;-145.18;100.00;46668.22;5009558;28;20073;-68
2022/08/27 07:31:07;;;;;;;9.70;3.00;;;;;;;-145.18;100.00;46672.13;5009488;28;20104;-73
2022/08/27 07:33:34;;;;;;;7.50;3.00;;;;;;;-145.18;100.00;46668.22;5009578;28;20112;-78
2022/08/27 07:36:00;;;;;;;6.93;3.30;;;;;;;-145.18;100.00;46670.16;5009044;28;20099;-81
2022/08/27 07:38:26;;;;;;;8.17;3.30;;;;;;;-145.18;100.00;46668.22;5008339;28;20037;-79
2022/08/27 07:40:51;;;;;;;10.73;3.50;;;;;;;-145.18;100.00;46668.22;5008351;28;20478;-79
2022/08/27 07:46:01;;;;;;;10.63;3.13;;;;;;;-145.18;100.00;46674.06;5009737;28;20077;-80
2022/08/27 07:48:26;;;;;;;7.57;2.83;;;;;;;-145.18;100.00;46672.13;5009271;28;20057;-81
2022/08/27 07:50:52;;;;;;;8.17;2.93;;;;;;;-145.18;100.00;46672.13;5013321;28;20466;-80
2022/08/27 07:53:19;;;;;;;7.83;2.93;;;;;;;-145.18;100.00;46676.03;4995395;28;20026;-80
2022/08/27 07:55:44;;;;;;;6.47;2.50;;;;;;;-145.18;100.00;46658.44;5013286;28;20144;-80
2022/08/27 07:58:12;;;;;;;6.63;3.20;;;;;;;-145.18;100.00;46609.59;5012401;28;20034;-78
2022/08/27 08:00:40;;;;;;;6.50;2.73;;;;;;;-145.18;100.00;46595.94;5002714;28;20037;-79
2022/08/27 08:03:06;;;;;;;5.93;2.30;;;;;;;-145.18;100.00;46560.78;4979568;28;20195;-80
2022/08/27 08:05:31;;;;;;;6.33;2.63;;;;;;;-145.18;100.00;46545.16;4995752;28;20546;-79
2022/08/27 08:07:56;;;;;;;8.33;2.50;;;;;;;-145.18;100.00;46547.09;4993139;28;20151;-80
2022/08/27 08:10:22;;;;;;;7.23;2.63;;;;;;;-145.18;100.00;46560.78;4992795;28;20165;-79
2022/08/27 08:12:48;;;;;;;6.07;2.43;;;;;;;-145.18;100.00;46556.88;4993579;28;20035;-77
2022/08/27 08:15:16;;;;;;;7.70;3.63;;;;;;;-145.18;100.00;46566.63;4992678;28;20037;-78
2022/08/27 08:17:41;;;;;;;5.10;2.50;;;;;;;-145.18;100.00;46551.00;4993367;28;20487;-77
2022/08/27 08:20:08;;;;;;;9.60;2.50;;;;;;;-145.18;100.00;46564.69;4992398;28;20037;-77
2022/08/27 08:22:34;;;;;;;5.63;2.40;;;;;;;-145.18;100.00;46564.69;4993106;28;20105;-77
2022/08/27 08:24:59;;;;;;;9.27;2.53;;;;;;;-145.18;100.00;46552.97;4992638;28;20546;-76
2022/08/27 08:27:25;;;;;;;8.63;3.10;;;;;;;-145.18;100.00;46572.50;4992776;28;20360;-79
2022/08/27 08:29:50;;;;;;;8.37;2.57;;;;;;;-145.18;100.00;46570.53;4992809;28;20446;-79
2022/08/27 08:32:16;;;;;;;9.80;3.10;;;;;;;-145.18;100.00;46576.41;4992758;28;20554;-79
2022/08/27 08:34:43;;;;;;;16.23;3.47;;;;;;;-145.18;100.00;46586.16;4991209;28;20026;-78
2022/08/27 08:37:09;;;;;;;9.83;2.57;;;;;;;-145.18;100.00;46593.97;4992683;28;20023;-77
2022/08/27 08:39:36;;;;;;;6.40;2.77;;;;;;;-145.18;100.00;46607.66;4992562;28;20125;-77
2022/08/27 08:42:05;;;;;;;9.53;2.90;;;;;;;-145.18;100.00;46609.59;4992746;28;20078;-77
2022/08/27 08:44:35;;;;;;;6.50;2.83;;;;;;;-145.18;100.00;46599.84;5005061;28;20398;-78
2022/08/27 08:47:15;;;;;;;8.03;3.23;;;;;;;-145.18;100.00;46578.34;5012410;28;20478;-77
2022/08/27 08:49:56;;;;;;;8.73;3.00;;;;;;;-145.18;100.00;46599.84;5011615;28;20030;-77
2022/08/27 08:52:36;;;;;;;7.67;3.20;;;;;;;-145.18;100.00;46609.59;5011441;28;20767;-77
2022/08/27 08:55:30;;;;;;;6.93;2.87;;;;;;;-145.18;100.00;46578.34;5011886;28;20025;-77
2022/08/27 08:58:05;;;;;;;10.17;2.87;;;;;;;-145.18;100.00;46613.50;5011774;28;20092;-77
2022/08/27 09:00:31;;;;;;;11.23;2.40;;;;;;;-145.18;100.00;46611.56;5008660;28;20049;-76
2022/08/27 09:02:56;;;;;;;6.13;2.90;;;;;;;-145.18;100.00;46592.03;5010760;28;20560;-76
2022/08/27 09:05:24;;;;;;;5.23;2.33;;;;;;;-145.18;100.00;46582.25;4993565;28;20049;-77
2022/08/27 09:07:56;;;;;;;7.83;2.70;;;;;;;-145.18;100.00;46611.56;5011810;28;20044;-76
2022/08/27 09:10:38;;;;;;;11.50;2.70;;;;;;;-145.18;100.00;46623.28;5009420;28;20030;-76
2022/08/27 09:13:11;;;;;;;8.50;2.67;;;;;;;-145.18;100.00;46627.19;5011749;28;20038;-78
2022/08/27 09:15:37;;;;;;;10.27;3.37;;;;;;;-145.18;100.00;46627.19;5011287;28;20053;-79
2022/08/27 09:18:11;;;;;;;8.97;3.60;;;;;;;-145.18;100.00;46607.66;5011471;28;20034;-79
2022/08/27 09:20:40;;;;;;;7.25;2.70;;;;;;;-145.18;100.00;46609.59;5011244;28;20030;-79
2022/08/27 09:23:27;;;;;;;3.83;2.50;;;;;;;-145.18;100.00;46572.50;5010377;28;20034;-77
2022/08/27 09:25:52;;;;;;;5.67;2.67;;;;;;;-145.18;100.00;46597.88;5010295;28;20434;-77
2022/08/27 09:31:12;;;;;;;6.47;2.70;;;;;;;-145.18;100.00;47090.16;5011615;28;20084;-79
2022/08/27 09:33:37;;;;;;;4.43;2.53;;;;;;;-145.18;100.00;47238.63;5008429;28;20136;-76
2022/08/27 09:36:09;;;;;;;10.10;2.50;;;;;;;-145.18;100.00;47205.41;5010123;28;20461;-77
2022/08/27 09:38:35;;;;;;;5.63;2.83;;;;;;;-145.18;100.00;46703.38;5010720;28;20514;-80
2022/08/27 09:41:05;;;;;;;5.80;2.40;;;;;;;-145.18;100.00;46631.09;5011243;28;20111;-79
2022/08/27 09:43:31;;;;;;;6.47;3.27;;;;;;;-145.18;100.00;46644.78;5011005;28;20076;-79
2022/08/27 09:46:20;;;;;;;12.17;3.13;;;;;;;-145.18;100.00;46613.50;5011139;28;20037;-79
2022/08/27 09:48:46;;;;;;;8.17;3.17;;;;;;;-145.18;100.00;46593.97;5007749;28;20049;-79
2022/08/27 09:51:15;;;;;;;5.23;2.80;;;;;;;-145.18;100.00;46605.69;5007031;28;20045;-79
2022/08/27 09:53:49;;;;;;;5.37;2.63;;;;;;;-145.18;100.00;46582.25;5008403;28;20410;-79
2022/08/27 09:56:49;;;;;;;10.77;2.93;;;;;;;-145.18;100.00;46629.13;5001930;28;20084;-79
2022/08/27 09:59:35;;;;;;;7.57;2.60;;;;;;;-145.18;100.00;46619.38;5004245;28;20037;-79
2022/08/27 10:02:13;;;;;;;7.10;3.13;;;;;;;-145.18;100.00;46613.50;5009106;28;20410;-79
2022/08/27 10:04:49;;;;;;;12.20;3.50;;;;;;;-145.18;100.00;46613.50;5005033;28;20068;-79
2022/08/27 10:07:45;;;;;;;7.87;2.47;;;;;;;-145.18;100.00;46611.56;5001147;28;20022;-79
2022/08/27 10:10:36;;;;;;;6.27;2.80;;;;;;;-145.18;100.00;46617.41;5004805;28;20614;-79
2022/08/27 10:13:26;;;;;;;6.20;2.40;;;;;;;-145.18;100.00;46636.94;4990724;28;20405;-76
2022/08/27 10:15:58;;;;;;;5.13;2.23;;;;;;;-145.18;100.00;46576.41;4990194;28;20521;-75
2022/08/27 10:19:12;;;;;;;7.23;2.70;;;;;;;-145.18;100.00;46582.25;4990177;28;20033;-75
2022/08/27 10:21:50;;;;;;;5.57;2.50;;;;;;;-145.18;100.00;46674.06;4990458;28;20034;-75
2022/08/27 10:24:29;;;;;;;7.07;2.00;;;;;;;-145.18;100.00;47094.06;4990151;28;20137;-75
2022/08/27 10:27:27;;;;;;;5.27;1.87;;;;;;;-145.18;100.00;47107.72;4990608;28;20026;-75
2022/08/27 10:29:59;;;;;;;6.23;1.83;;;;;;;-145.18;100.00;47119.47;4990220;28;20113;-76
2022/08/27 10:32:43;;;;;;;6.57;2.07;;;;;;;-145.18;100.00;47185.88;4990378;28;20407;-75
2022/08/27 10:35:18;;;;;;;7.60;2.00;;;;;;;-145.18;100.00;47205.41;4997483;28;20520;-75
2022/08/27 10:38:07;;;;;;;3.60;1.77;;;;;;;-145.18;100.00;47209.31;5010238;28;20408;-75
2022/08/27 10:40:41;;;;;;;6.03;1.77;;;;;;;-145.18;100.00;47217.13;5009682;28;20121;-75
2022/08/27 10:43:15;;;;;;;12.50;2.37;;;;;;;-145.18;100.00;47211.28;5009983;28;20502;-75
2022/08/27 10:46:03;;;;;;;6.77;1.90;;;;;;;-145.18;100.00;47133.13;5009861;28;20032;-75
2022/08/27 10:48:45;;;;;;;6.17;1.67;;;;;;;-145.18;100.00;47150.72;5010516;28;20036;-75
2022/08/27 10:51:47;;;;;;;5.77;1.73;;;;;;;-145.18;100.00;47160.47;5009565;28;20068;-76
2022/08/27 10:54:26;;;;;;;2.40;1.17;;;;;;;-145.18;100.00;47246.44;4999198;28;20139;-78
2022/08/27 10:57:06;;;;;;;5.17;1.50;;;;;;;-145.18;100.00;47211.28;5010186;28;20445;-77
2022/08/27 10:59:48;;;;;;;7.20;1.60;;;;;;;-145.18;100.00;47203.47;5009653;28;20091;-78
2022/08/27 11:02:44;;;;;;;6.00;1.47;;;;;;;-145.18;100.00;47183.94;5012471;28;20042;-77
2022/08/27 11:05:21;;;;;;;3.63;1.27;;;;;;;-145.18;100.00;47217.13;5008835;28;20054;-77
2022/08/27 11:07:54;;;;;;;3.43;1.30;;;;;;;-145.18;100.00;47230.81;5010110;28;20037;-77
2022/08/27 11:10:28;;;;;;;4.83;1.77;;;;;;;-145.18;100.00;47232.75;5006628;28;20494;-77
2022/08/27 11:12:58;;;;;;;6.67;1.83;;;;;;;-145.18;100.00;47209.31;5008635;28;20034;-76
2022/08/27 11:15:28;;;;;;;8.30;1.80;;;;;;;-145.18;100.00;47217.13;5009073;28;20031;-77
2022/08/27 11:18:17;;;;;;;6.33;1.50;;;;;;;-145.18;100.00;47211.28;5009886;28;20113;-76
2022/08/27 11:20:52;;;;;;;5.73;1.97;;;;;;;-145.18;100.00;47197.59;4970164;28;20049;-75
2022/08/27 11:23:30;;;;;;;8.32;1.83;;;;;;;-145.18;100.00;47209.31;5009174;28;20770;-75
2022/08/27 11:26:04;;;;;;;8.37;1.67;;;;;;;-145.18;100.00;47203.47;4997107;28;20080;-75
2022/08/27 11:28:40;;;;;;;5.63;1.87;;;;;;;-145.18;100.00;47234.72;5013458;28;20432;-75